createdAt,value
2022-08-09T00:00:07.445Z,7
2022-08-09T00:03:10.733Z,7
2022-08-09T00:06:07.472Z,5
2022-08-09T00:09:07.479Z,6
2022-08-09T00:12:07.477Z,5
2022-08-09T00:15:07.474Z,10
2022-08-09T00:18:07.489Z,11
2022-08-09T00:21:07.514Z,7
2022-08-09T00:24:07.500Z,7
2022-08-09T00:27:07.506Z,10
2022-08-09T00:30:07.513Z,8
2022-08-09T00:33:07.528Z,8
2022-08-09T00:36:07.522Z,7
2022-08-09T00:39:07.555Z,8
2022-08-09T00:42:07.542Z,8
2022-08-09T00:45:07.549Z,8
2022-08-09T00:48:07.567Z,7
2022-08-09T00:51:07.592Z,8
2022-08-09T00:54:07.580Z,9
2022-08-09T00:57:07.586Z,7
2022-08-09T01:00:07.588Z,9
2022-08-09T01:03:07.601Z,8
2022-08-09T01:06:07.629Z,8
2022-08-09T01:09:07.613Z,7
2022-08-09T01:12:07.635Z,6
2022-08-09T01:15:07.638Z,8
2022-08-09T01:18:07.639Z,6
2022-08-09T01:21:07.666Z,6
2022-08-09T01:24:07.678Z,5
2022-08-09T01:27:07.674Z,7
2022-08-09T01:30:07.694Z,8
2022-08-09T01:33:07.695Z,7
2022-08-09T01:36:07.705Z,6
2022-08-09T01:39:07.727Z,7
2022-08-09T01:42:07.719Z,5
2022-08-09T01:45:07.737Z,7
2022-08-09T01:48:07.721Z,8
2022-08-09T01:51:07.749Z,8
2022-08-09T01:54:07.758Z,8
2022-08-09T01:57:07.766Z,5
2022-08-09T02:00:07.776Z,5
2022-08-09T02:03:07.769Z,6
2022-08-09T02:06:07.780Z,7
2022-08-09T02:09:07.808Z,6
2022-08-09T02:12:07.807Z,8
2022-08-09T02:15:07.810Z,8
2022-08-09T02:18:07.806Z,5
2022-08-09T02:21:07.827Z,9
2022-08-09T02:24:07.838Z,8
2022-08-09T02:27:07.863Z,10
2022-08-09T02:30:07.861Z,5
2022-08-09T02:33:07.864Z,6
2022-08-09T02:36:07.881Z,6
2022-08-09T02:39:07.882Z,7
2022-08-09T02:42:07.892Z,8
2022-08-09T02:45:07.886Z,7
2022-08-09T02:48:07.911Z,4
2022-08-09T02:51:07.920Z,7
2022-08-09T02:54:07.924Z,7
2022-08-09T02:57:07.941Z,5
2022-08-09T03:00:07.948Z,7
2022-08-09T03:03:07.963Z,8
2022-08-09T03:06:07.971Z,8
2022-08-09T03:09:07.962Z,7
2022-08-09T03:12:07.985Z,7
2022-08-09T03:15:08.000Z,7
2022-08-09T03:18:07.998Z,8
2022-08-09T03:21:08.016Z,8
2022-08-09T03:24:08.008Z,9
2022-08-09T03:27:08.029Z,6
2022-08-09T03:30:08.042Z,7
2022-08-09T03:33:08.046Z,10
2022-08-09T03:36:08.056Z,12
2022-08-09T03:39:08.052Z,5
2022-08-09T03:42:08.077Z,7
2022-08-09T03:45:08.074Z,10
2022-08-09T03:48:08.082Z,12
2022-08-09T03:51:08.090Z,5
2022-08-09T03:54:08.097Z,6
2022-08-09T03:57:08.123Z,7
2022-08-09T04:00:08.117Z,7
2022-08-09T04:03:08.123Z,9
2022-08-09T04:06:08.150Z,7
2022-08-09T04:09:08.140Z,11
2022-08-09T04:12:11.611Z,8
2022-08-09T04:15:08.161Z,10
2022-08-09T04:18:08.178Z,11
2022-08-09T04:21:08.168Z,13
2022-08-09T04:24:08.191Z,11
2022-08-09T04:27:08.189Z,7
2022-08-09T04:30:08.212Z,8
2022-08-09T04:33:08.220Z,8
2022-08-09T04:36:08.225Z,9
2022-08-09T04:39:08.235Z,7
2022-08-09T04:42:08.262Z,9
2022-08-09T04:45:08.283Z,8
2022-08-09T04:48:08.251Z,9
2022-08-09T04:51:08.250Z,8
2022-08-09T04:54:08.269Z,6
2022-08-09T04:57:08.272Z,8
2022-08-09T05:00:08.276Z,8
2022-08-09T05:03:08.288Z,9
2022-08-09T05:06:08.289Z,10
2022-08-09T05:09:08.306Z,10
2022-08-09T05:12:08.310Z,11
2022-08-09T05:15:08.320Z,7
2022-08-09T05:18:08.361Z,8
2022-08-09T05:21:08.338Z,9
2022-08-09T05:24:08.361Z,9
2022-08-09T05:27:08.359Z,9
2022-08-09T05:30:08.368Z,9
2022-08-09T05:33:08.382Z,11
2022-08-09T05:36:08.379Z,8
2022-08-09T05:39:08.389Z,10
2022-08-09T05:42:08.399Z,9
2022-08-09T05:45:08.424Z,8
2022-08-09T05:48:08.423Z,11
2022-08-09T05:51:08.421Z,9
2022-08-09T05:54:08.452Z,12
2022-08-09T05:57:08.458Z,9
2022-08-09T06:00:08.466Z,11
2022-08-09T06:03:10.417Z,10
2022-08-09T06:06:08.478Z,7
2022-08-09T06:09:08.489Z,11
2022-08-09T06:12:08.500Z,12
2022-08-09T06:15:08.565Z,12
2022-08-09T06:18:08.515Z,8
2022-08-09T06:21:08.529Z,8
2022-08-09T06:24:08.530Z,10
2022-08-09T06:27:08.522Z,10
2022-08-09T06:30:08.533Z,12
2022-08-09T06:33:08.558Z,5
2022-08-09T06:36:08.554Z,8
2022-08-09T06:39:08.563Z,7
2022-08-09T06:42:08.584Z,7
2022-08-09T06:45:08.590Z,10
2022-08-09T06:48:08.601Z,7
2022-08-09T06:51:08.608Z,10
2022-08-09T06:54:08.631Z,8
2022-08-09T06:57:08.653Z,7
2022-08-09T07:00:08.638Z,5
2022-08-09T07:03:08.648Z,8
2022-08-09T07:06:08.669Z,11
2022-08-09T07:09:08.662Z,7
2022-08-09T07:12:08.750Z,12
2022-08-09T07:15:08.681Z,6
2022-08-09T07:18:08.706Z,9
2022-08-09T07:21:08.705Z,8
2022-08-09T07:24:08.705Z,6
2022-08-09T07:27:08.731Z,8
2022-08-09T07:30:08.735Z,9
2022-08-09T07:33:08.751Z,9
2022-08-09T07:36:08.759Z,7
2022-08-09T07:39:08.761Z,9
2022-08-09T07:42:08.758Z,8
2022-08-09T07:45:08.773Z,10
2022-08-09T07:48:08.795Z,10
2022-08-09T07:51:08.803Z,8
2022-08-09T07:54:08.805Z,7
2022-08-09T07:57:08.815Z,6
2022-08-09T08:00:08.826Z,8
2022-08-09T08:03:08.842Z,13
2022-08-09T08:06:08.837Z,7
2022-08-09T08:09:08.876Z,9
2022-08-09T08:12:08.868Z,11
2022-08-09T08:15:08.879Z,7
2022-08-09T08:18:08.872Z,8
2022-08-09T08:21:08.912Z,5
2022-08-09T08:24:08.899Z,6
2022-08-09T08:27:08.914Z,9
2022-08-09T08:30:08.926Z,5
2022-08-09T08:33:08.935Z,7
2022-08-09T08:36:08.931Z,4
2022-08-09T08:39:08.961Z,9
2022-08-09T08:42:08.960Z,8
2022-08-09T08:45:09.016Z,8
2022-08-09T08:48:08.955Z,4
2022-08-09T08:51:08.987Z,8
2022-08-09T08:54:08.974Z,7
2022-08-09T08:57:08.999Z,5
2022-08-09T09:00:08.994Z,5
2022-08-09T09:03:09.012Z,9
2022-08-09T09:06:09.020Z,8
2022-08-09T09:09:09.044Z,11
2022-08-09T09:12:09.059Z,7
2022-08-09T09:15:09.045Z,8
2022-08-09T09:18:09.069Z,6
2022-08-09T09:21:09.069Z,9
2022-08-09T09:24:09.072Z,9
2022-08-09T09:27:09.094Z,8
2022-08-09T09:30:09.117Z,9
2022-08-09T09:33:09.126Z,7
2022-08-09T09:36:09.107Z,9
2022-08-09T09:39:09.123Z,9
2022-08-09T09:42:09.184Z,11
2022-08-09T09:45:09.149Z,9
2022-08-09T09:48:09.164Z,9
2022-08-09T09:51:09.170Z,6
2022-08-09T09:54:09.169Z,8
2022-08-09T09:57:09.173Z,9
2022-08-09T10:00:09.198Z,8
2022-08-09T10:03:09.193Z,5
2022-08-09T10:06:09.295Z,7
2022-08-09T10:09:09.238Z,5
2022-08-09T10:12:09.227Z,6
2022-08-09T10:15:09.235Z,7
2022-08-09T10:18:09.236Z,5
2022-08-09T10:21:09.250Z,6
2022-08-09T10:24:09.249Z,4
2022-08-09T10:27:09.278Z,5
2022-08-09T10:30:09.284Z,5
2022-08-09T10:33:09.283Z,5
2022-08-09T10:36:09.307Z,4
2022-08-09T10:39:09.329Z,6
2022-08-09T10:42:09.317Z,4
2022-08-09T10:45:09.337Z,5
2022-08-09T10:48:09.345Z,3
2022-08-09T10:51:09.349Z,5
2022-08-09T10:54:09.355Z,6
2022-08-09T10:57:09.372Z,3
2022-08-09T11:00:09.359Z,5
2022-08-09T11:03:09.408Z,7
2022-08-09T11:06:09.390Z,7
2022-08-09T11:09:09.407Z,7
2022-08-09T11:12:09.406Z,5
2022-08-09T11:15:09.416Z,6
2022-08-09T11:18:09.437Z,8
2022-08-09T11:21:09.441Z,8
2022-08-09T11:24:09.468Z,8
2022-08-09T11:27:09.455Z,10
2022-08-09T11:30:09.469Z,9
2022-08-09T11:33:09.494Z,10
2022-08-09T11:36:09.491Z,5
2022-08-09T11:39:09.499Z,4
2022-08-09T11:42:09.524Z,9
2022-08-09T11:45:09.508Z,6
2022-08-09T11:48:09.519Z,5
2022-08-09T11:51:09.535Z,7
2022-08-09T11:54:09.546Z,6
2022-08-09T11:57:09.548Z,5
2022-08-09T12:00:09.566Z,6
2022-08-09T12:03:09.573Z,6
2022-08-09T12:06:09.582Z,4
2022-08-09T12:09:12.194Z,5
2022-08-09T12:12:09.602Z,7
2022-08-09T12:15:09.630Z,6
2022-08-09T12:18:09.629Z,4
2022-08-09T12:21:09.636Z,5
2022-08-09T12:24:09.652Z,6
2022-08-09T12:27:09.649Z,5
2022-08-09T12:30:09.660Z,7
2022-08-09T12:33:09.689Z,6
2022-08-09T12:36:09.675Z,6
2022-08-09T12:39:09.695Z,6
2022-08-09T12:42:09.712Z,7
2022-08-09T12:45:09.718Z,4
2022-08-09T12:48:09.727Z,6
2022-08-09T12:51:09.722Z,8
2022-08-09T12:54:09.736Z,6
2022-08-09T12:57:09.751Z,4
2022-08-09T13:00:09.759Z,9
2022-08-09T13:03:09.769Z,10
2022-08-09T13:06:09.788Z,6
2022-08-09T13:09:09.791Z,8
2022-08-09T13:12:09.808Z,8
2022-08-09T13:15:09.803Z,9
2022-08-09T13:18:09.823Z,8
2022-08-09T13:21:09.826Z,8
2022-08-09T13:24:09.846Z,7
2022-08-09T13:27:09.848Z,9
2022-08-09T13:30:21.834Z,4
2022-08-09T13:33:09.904Z,7
2022-08-09T13:36:09.882Z,9
2022-08-09T13:39:09.892Z,7
2022-08-09T13:42:09.911Z,7
2022-08-09T13:45:09.915Z,8
2022-08-09T13:48:09.940Z,12
2022-08-09T13:51:09.943Z,10
2022-08-09T13:54:09.951Z,11
2022-08-09T13:57:09.951Z,13
2022-08-09T14:00:09.987Z,9
2022-08-09T14:03:09.991Z,11
2022-08-09T14:06:09.981Z,9
2022-08-09T14:09:09.993Z,8
2022-08-09T14:12:10.001Z,5
2022-08-09T14:15:10.018Z,15
2022-08-09T14:18:10.017Z,12
2022-08-09T14:21:10.030Z,7
2022-08-09T14:24:10.050Z,9
2022-08-09T14:27:10.059Z,8
2022-08-09T14:30:10.084Z,8
2022-08-09T14:33:10.133Z,6
2022-08-09T14:36:10.080Z,7
2022-08-09T14:39:10.097Z,7
2022-08-09T14:42:10.096Z,9
2022-08-09T14:45:10.117Z,6
2022-08-09T14:48:10.120Z,6
2022-08-09T14:51:11.522Z,4
2022-08-09T14:54:10.150Z,7
2022-08-09T14:57:10.165Z,10
2022-08-09T15:00:10.168Z,5
2022-08-09T15:03:10.199Z,7
2022-08-09T15:06:10.188Z,4
2022-08-09T15:09:10.189Z,6
2022-08-09T15:12:10.212Z,5
2022-08-09T15:15:10.224Z,3
2022-08-09T15:18:10.271Z,4
2022-08-09T15:21:10.233Z,4
2022-08-09T15:24:10.258Z,8
2022-08-09T15:27:10.255Z,4
2022-08-09T15:30:10.266Z,3
2022-08-09T15:33:10.274Z,6
2022-08-09T15:36:10.289Z,7
2022-08-09T15:39:10.289Z,4
2022-08-09T15:42:10.315Z,6
2022-08-09T15:45:10.318Z,6
2022-08-09T15:48:10.313Z,7
2022-08-09T15:51:10.328Z,4
2022-08-09T15:54:10.327Z,3
2022-08-09T15:57:10.350Z,5
2022-08-09T16:00:10.352Z,6
2022-08-09T16:03:10.367Z,6
2022-08-09T16:06:10.379Z,6
2022-08-09T16:09:10.392Z,9
2022-08-09T16:12:10.410Z,3
2022-08-09T16:15:10.458Z,6
2022-08-09T16:18:10.408Z,8
2022-08-09T16:21:10.430Z,5
2022-08-09T16:24:10.444Z,6
2022-08-09T16:27:10.462Z,4
2022-08-09T16:30:10.472Z,4
2022-08-09T16:33:10.488Z,3
2022-08-09T16:36:10.478Z,4
2022-08-09T16:39:10.493Z,7
2022-08-09T16:42:10.489Z,3
2022-08-09T16:45:10.541Z,4
2022-08-09T16:48:10.542Z,4
2022-08-09T16:51:10.532Z,5
2022-08-09T16:54:10.547Z,4
2022-08-09T16:57:10.562Z,4
2022-08-09T17:00:10.573Z,6
2022-08-09T17:03:10.582Z,4
2022-08-09T17:06:10.593Z,4
2022-08-09T17:09:10.622Z,6
2022-08-09T17:12:10.643Z,3
2022-08-09T17:15:10.619Z,4
2022-08-09T17:18:10.625Z,5
2022-08-09T17:21:10.629Z,4
2022-08-09T17:24:10.646Z,4
2022-08-09T17:27:10.649Z,6
2022-08-09T17:30:10.666Z,5
2022-08-09T17:33:10.669Z,5
2022-08-09T17:36:10.687Z,6
2022-08-09T17:39:10.691Z,5
2022-08-09T17:42:10.689Z,7
2022-08-09T17:45:10.700Z,7
2022-08-09T17:48:10.711Z,3
2022-08-09T17:51:10.730Z,7
2022-08-09T17:54:10.774Z,3
2022-08-09T17:57:10.739Z,5
2022-08-09T18:00:10.755Z,6
2022-08-09T18:03:10.767Z,7
2022-08-09T18:06:10.785Z,6
2022-08-09T18:09:10.817Z,6
2022-08-09T18:12:10.804Z,4
2022-08-09T18:15:10.808Z,4
2022-08-09T18:18:10.814Z,4
2022-08-09T18:21:10.834Z,3
2022-08-09T18:24:10.852Z,3
2022-08-09T18:27:10.851Z,3
2022-08-09T18:30:10.854Z,5
2022-08-09T18:33:10.860Z,3
2022-08-09T18:36:10.880Z,4
2022-08-09T18:39:10.936Z,4
2022-08-09T18:42:10.895Z,3
2022-08-09T18:45:10.913Z,4
2022-08-09T18:48:10.920Z,5
2022-08-09T18:51:10.922Z,5
2022-08-09T18:54:10.940Z,5
2022-08-09T18:57:10.935Z,5
2022-08-09T19:00:10.942Z,4
2022-08-09T19:03:10.969Z,5
2022-08-09T19:06:10.966Z,4
2022-08-09T19:09:11.002Z,5
2022-08-09T19:12:10.994Z,4
2022-08-09T19:15:11.007Z,6
2022-08-09T19:18:10.999Z,4
2022-08-09T19:21:11.035Z,6
2022-08-09T19:24:11.011Z,5
2022-08-09T19:27:11.024Z,4
2022-08-09T19:30:11.048Z,5
2022-08-09T19:33:11.046Z,7
2022-08-09T19:36:11.061Z,8
2022-08-09T19:39:11.068Z,4
2022-08-09T19:42:11.081Z,5
2022-08-09T19:45:11.091Z,7
2022-08-09T19:48:11.102Z,7
2022-08-09T19:51:11.105Z,5
2022-08-09T19:54:11.117Z,6
2022-08-09T19:57:11.135Z,7
2022-08-09T20:00:11.137Z,8
2022-08-09T20:03:11.148Z,6
2022-08-09T20:06:11.160Z,7
2022-08-09T20:09:20.564Z,7
2022-08-09T20:12:11.175Z,6
2022-08-09T20:15:11.197Z,8
2022-08-09T20:18:11.264Z,6
2022-08-09T20:21:11.188Z,7
2022-08-09T20:24:11.202Z,7
2022-08-09T20:27:11.220Z,7
2022-08-09T20:30:11.228Z,7
2022-08-09T20:33:11.223Z,10
2022-08-09T20:36:11.245Z,8
2022-08-09T20:39:11.244Z,8
2022-08-09T20:42:11.270Z,7
2022-08-09T20:45:11.265Z,7
2022-08-09T20:48:11.273Z,8
2022-08-09T20:51:11.294Z,6
2022-08-09T20:54:11.297Z,9
2022-08-09T20:57:11.302Z,8
2022-08-09T21:00:11.324Z,9
2022-08-09T21:03:11.310Z,7
2022-08-09T21:06:11.336Z,8
2022-08-09T21:09:11.342Z,8
2022-08-09T21:12:56.360Z,7
2022-08-09T21:15:11.355Z,9
2022-08-09T21:18:11.383Z,5
2022-08-09T21:21:11.385Z,8
2022-08-09T21:24:11.383Z,8
2022-08-09T21:27:11.405Z,6
2022-08-09T21:30:11.389Z,5
2022-08-09T21:33:11.402Z,8
2022-08-09T21:36:11.433Z,6
2022-08-09T21:39:11.437Z,8
2022-08-09T21:42:11.447Z,5
2022-08-09T21:45:11.451Z,5
2022-08-09T21:48:11.467Z,7
2022-08-09T21:51:13.229Z,7
2022-08-09T21:54:11.476Z,9
2022-08-09T21:57:11.487Z,9
2022-08-09T22:00:11.524Z,7
2022-08-09T22:03:11.513Z,10
2022-08-09T22:06:11.518Z,10
2022-08-09T22:09:11.543Z,8
2022-08-09T22:12:11.522Z,11
2022-08-09T22:15:11.554Z,10
2022-08-09T22:18:11.596Z,9
2022-08-09T22:21:11.559Z,12
2022-08-09T22:24:11.569Z,12
2022-08-09T22:27:11.593Z,12
2022-08-09T22:30:11.591Z,17
2022-08-09T22:36:11.612Z,12
2022-08-09T22:39:11.610Z,15
2022-08-09T22:42:11.641Z,14
2022-08-09T22:45:11.644Z,14
2022-08-09T22:48:11.643Z,15
2022-08-09T22:51:11.682Z,15
2022-08-09T22:54:11.661Z,19
2022-08-09T22:57:11.671Z,24
2022-08-09T23:00:11.698Z,30
2022-08-09T23:03:11.711Z,26
2022-08-09T23:06:11.712Z,27
2022-08-09T23:09:11.711Z,24
2022-08-09T23:12:11.717Z,23
2022-08-09T23:15:11.742Z,20
2022-08-09T23:18:11.787Z,23
2022-08-09T23:21:11.739Z,20
2022-08-09T23:24:11.754Z,21
2022-08-09T23:27:11.760Z,19
2022-08-09T23:30:11.776Z,21
2022-08-09T23:33:11.780Z,22
2022-08-09T23:36:11.783Z,19
2022-08-09T23:39:11.813Z,21
2022-08-09T23:42:11.823Z,19
2022-08-09T23:45:11.827Z,18
2022-08-09T23:48:11.821Z,24
2022-08-09T23:51:11.837Z,22
2022-08-09T23:54:11.855Z,27
2022-08-09T23:57:11.867Z,25
